Time;durP1;ratioP1;P1;durP2;ratioP2;P2;SDS_P1;SDS_P2;PMS_P1;PMS_P2;Temp;Humidity;BMP_temperature;BMP_pressure;BME280_temperature;BME280_humidity;BME280_pressure;Samples;Min_cycle;Max_cycle;Signal;HPM_P1;HPM_P2
2023/12/06 00:02:00;;;;;;;;;;;13.20;74.70;;;;;;4959967;28;19902;-81
2023/12/06 00:04:25;;;;;;;;;;;13.20;74.70;;;;;;4959767;28;19902;-81
2023/12/06 00:06:51;;;;;;;;;;;13.20;74.70;;;;;;4977051;28;19917;-81
2023/12/06 00:09:17;;;;;;;;;;;13.20;74.70;;;;;;4976680;28;19992;-80
2023/12/06 00:11:43;;;;;;;;;;;13.10;74.70;;;;;;4959544;28;19902;-80
2023/12/06 00:14:08;;;;;;;;;;;13.20;74.80;;;;;;4977243;28;20290;-80
2023/12/06 00:16:34;;;;;;;;;;;13.20;74.70;;;;;;4959681;28;19902;-80
2023/12/06 00:18:59;;;;;;;;;;;13.10;74.70;;;;;;4958650;28;19957;-81
2023/12/06 00:21:24;;;;;;;;;;;13.20;74.80;;;;;;4976811;28;19984;-80
2023/12/06 00:23:50;;;;;;;;;;;13.10;74.70;;;;;;4959588;28;19952;-81
2023/12/06 00:26:15;;;;;;;;;;;13.20;74.80;;;;;;4959527;28;20010;-81
2023/12/06 00:28:41;;;;;;;;;;;13.20;74.80;;;;;;4959368;28;19909;-80
2023/12/06 00:31:06;;;;;;;;;;;13.10;74.70;;;;;;4959196;28;19909;-81
2023/12/06 00:33:32;;;;;;;;;;;13.10;74.80;;;;;;4958941;28;19913;-83
2023/12/06 00:35:57;;;;;;;;;;;13.10;74.80;;;;;;4959173;28;19931;-81
2023/12/06 00:38:23;;;;;;;;;;;13.10;74.70;;;;;;4959065;28;20021;-80
2023/12/06 00:40:49;;;;;;;;;;;13.10;74.80;;;;;;4959024;28;19902;-81
2023/12/06 00:43:14;;;;;;;;;;;13.10;74.80;;;;;;4959151;28;19931;-80
2023/12/06 00:45:39;;;;;;;;;;;13.10;74.80;;;;;;4959126;28;19906;-81
2023/12/06 00:48:05;;;;;;;;;;;13.20;74.90;;;;;;4959050;28;20243;-81
2023/12/06 00:50:30;;;;;;;;;;;13.10;74.80;;;;;;4959016;28;19985;-80
2023/12/06 00:52:56;;;;;;;;;;;13.10;74.80;;;;;;4958855;28;19997;-79
2023/12/06 00:55:21;;;;;;;;;;;13.20;74.90;;;;;;4958892;28;19949;-79
2023/12/06 00:57:46;;;;;;;;;;;13.10;74.80;;;;;;4958898;28;19937;-79
2023/12/06 01:00:12;;;;;;;;;;;13.10;74.90;;;;;;4958603;28;19983;-79
2023/12/06 01:02:38;;;;;;;;;;;13.10;74.90;;;;;;4958220;28;20405;-79
2023/12/06 01:05:04;;;;;;;;;;;13.10;74.90;;;;;;4958726;28;20001;-79
2023/12/06 01:07:29;;;;;;;;;;;13.10;74.90;;;;;;4958214;28;19980;-79
2023/12/06 01:09:55;;;;;;;;;;;13.10;74.90;;;;;;4958318;28;19945;-77
2023/12/06 01:12:20;;;;;;;;;;;13.10;74.90;;;;;;4958438;28;19902;-80
2023/12/06 01:14:45;;;;;;;;;;;13.10;74.90;;;;;;4958536;28;19906;-80
2023/12/06 01:17:11;;;;;;;;;;;13.10;74.90;;;;;;4958493;28;19906;-79
2023/12/06 01:19:36;;;;;;;;;;;13.10;74.90;;;;;;4958106;28;19901;-79
2023/12/06 01:22:02;;;;;;;;;;;13.10;74.90;;;;;;4958290;28;20041;-79
2023/12/06 01:24:27;;;;;;;;;;;13.10;74.90;;;;;;4958395;28;20044;-79
2023/12/06 01:26:53;;;;;;;;;;;13.10;74.90;;;;;;4958126;28;19917;-79
2023/12/06 01:29:18;;;;;;;;;;;13.10;75.00;;;;;;4975102;28;19906;-79
2023/12/06 01:31:43;;;;;;;;;;;13.10;75.00;;;;;;4957751;28;19910;-80
2023/12/06 01:34:09;;;;;;;;;;;13.20;75.00;;;;;;4957928;28;19920;-79
2023/12/06 01:36:35;;;;;;;;;;;13.10;75.00;;;;;;4957866;28;19910;-79
2023/12/06 01:39:00;;;;;;;;;;;13.10;75.00;;;;;;4973698;28;19910;-79
2023/12/06 01:41:26;;;;;;;;;;;13.10;75.00;;;;;;4955960;29;19906;-79
2023/12/06 01:43:51;;;;;;;;;;;13.10;75.00;;;;;;4938010;29;19914;-80
2023/12/06 01:46:18;;;;;;;;;;;13.10;75.00;;;;;;4938558;29;20294;-80
2023/12/06 01:48:43;;;;;;;;;;;13.10;75.00;;;;;;4955730;29;20338;-78
2023/12/06 01:51:09;;;;;;;;;;;13.10;75.00;;;;;;4938627;29;19906;-79
2023/12/06 01:53:35;;;;;;;;;;;13.10;75.00;;;;;;4938371;29;19910;-80
2023/12/06 01:56:01;;;;;;;;;;;13.10;75.10;;;;;;4947432;28;20074;-79
2023/12/06 01:58:28;;;;;;;;;;;13.10;75.00;;;;;;4957502;28;19958;-79
2023/12/06 02:00:53;;;;;;;;;;;13.10;75.10;;;;;;4957538;28;19910;-79
2023/12/06 02:03:19;;;;;;;;;;;13.10;75.00;;;;;;4957551;28;19906;-79
2023/12/06 02:05:44;;;;;;;;;;;13.10;75.10;;;;;;4957624;28;19910;-79
2023/12/06 02:08:10;;;;;;;;;;;13.10;75.10;;;;;;4974206;28;19910;-79
2023/12/06 02:10:35;;;;;;;;;;;13.10;75.10;;;;;;4957299;28;19957;-79
2023/12/06 02:13:01;;;;;;;;;;;13.10;75.10;;;;;;4957352;28;20403;-80
2023/12/06 02:15:26;;;;;;;;;;;13.10;75.10;;;;;;4957573;28;19906;-82
2023/12/06 02:17:52;;;;;;;;;;;13.10;75.10;;;;;;4957513;28;19906;-80
2023/12/06 02:20:18;;;;;;;;;;;13.10;75.10;;;;;;4974344;28;19906;-81
2023/12/06 02:22:43;;;;;;;;;;;13.10;75.10;;;;;;4957222;28;19910;-81
2023/12/06 02:25:11;;;;;;;;;;;13.10;75.10;;;;;;4957018;28;19906;-81
2023/12/06 02:27:39;;;;;;;;;;;13.10;75.10;;;;;;4974557;28;19905;-81
2023/12/06 02:30:04;;;;;;;;;;;13.10;75.20;;;;;;4956927;28;20362;-81
2023/12/06 02:32:30;;;;;;;;;;;13.10;75.20;;;;;;4974337;28;19914;-81
2023/12/06 02:34:56;;;;;;;;;;;13.00;75.10;;;;;;4956995;28;19910;-81
2023/12/06 02:37:22;;;;;;;;;;;13.10;75.10;;;;;;4957109;28;19910;-80
2023/12/06 02:39:49;;;;;;;;;;;13.00;75.10;;;;;;4956827;28;19906;-81
2023/12/06 02:42:14;;;;;;;;;;;13.00;75.20;;;;;;4957086;28;19906;-79
2023/12/06 02:44:40;;;;;;;;;;;13.00;75.10;;;;;;4974309;28;19914;-79
2023/12/06 02:47:06;;;;;;;;;;;13.00;75.10;;;;;;4956963;28;20252;-79
2023/12/06 02:49:31;;;;;;;;;;;13.00;75.20;;;;;;4956835;28;20256;-79
2023/12/06 02:51:57;;;;;;;;;;;13.00;75.20;;;;;;4956832;28;19913;-79
2023/12/06 02:54:22;;;;;;;;;;;13.00;75.20;;;;;;4956800;28;19917;-79
2023/12/06 02:56:47;;;;;;;;;;;13.00;75.20;;;;;;4961728;28;19960;-79
2023/12/06 02:59:13;;;;;;;;;;;13.00;75.20;;;;;;4963004;28;19997;-79
2023/12/06 03:01:38;;;;;;;;;;;13.00;75.20;;;;;;4963092;28;19921;-79
2023/12/06 03:04:05;;;;;;;;;;;13.00;75.30;;;;;;4963191;28;20668;-79
2023/12/06 03:06:30;;;;;;;;;;;13.00;75.20;;;;;;4962968;28;19913;-80
2023/12/06 03:08:56;;;;;;;;;;;13.00;75.30;;;;;;4962854;28;19906;-79
2023/12/06 03:11:21;;;;;;;;;;;13.00;75.30;;;;;;4963159;28;20318;-79
2023/12/06 03:13:47;;;;;;;;;;;13.00;75.30;;;;;;4963045;28;20309;-79
2023/12/06 03:16:12;;;;;;;;;;;13.00;75.30;;;;;;4962945;28;19906;-82
2023/12/06 03:18:38;;;;;;;;;;;13.00;75.30;;;;;;4962674;28;19906;-79
2023/12/06 03:21:03;;;;;;;;;;;13.00;75.30;;;;;;4963091;28;20005;-81
2023/12/06 03:23:29;;;;;;;;;;;13.00;75.30;;;;;;4963137;28;20330;-81
2023/12/06 03:25:54;;;;;;;;;;;13.00;75.30;;;;;;4980448;28;20359;-82
2023/12/06 03:28:20;;;;;;;;;;;13.00;75.30;;;;;;4962822;28;19906;-81
2023/12/06 03:30:45;;;;;;;;;;;13.00;75.80;;;;;;4962830;28;19906;-81
2023/12/06 03:33:10;;;;;;;;;;;13.00;75.30;;;;;;4962830;28;19906;-81
2023/12/06 03:35:36;;;;;;;;;;;13.00;75.30;;;;;;4962841;28;19910;-80
2023/12/06 03:38:02;;;;;;;;;;;13.00;75.30;;;;;;4980086;28;20005;-80
2023/12/06 03:40:27;;;;;;;;;;;13.00;75.40;;;;;;4962719;28;19906;-80
2023/12/06 03:42:53;;;;;;;;;;;13.00;75.30;;;;;;4962923;28;19964;-80
2023/12/06 03:45:18;;;;;;;;;;;13.00;75.40;;;;;;4980276;28;20363;-80
2023/12/06 03:47:44;;;;;;;;;;;13.00;75.40;;;;;;4962945;28;20274;-81
2023/12/06 03:50:09;;;;;;;;;;;13.00;75.40;;;;;;4962496;28;19912;-80
2023/12/06 03:52:34;;;;;;;;;;;13.00;75.40;;;;;;4962690;28;19906;-81
2023/12/06 03:55:00;;;;;;;;;;;13.00;75.40;;;;;;4960754;28;19917;-79
2023/12/06 03:57:26;;;;;;;;;;;13.00;75.90;;;;;;4977972;28;19906;-81
2023/12/06 03:59:51;;;;;;;;;;;13.00;75.40;;;;;;4962097;28;19906;-81
2023/12/06 04:02:18;;;;;;;;;;;13.00;75.40;;;;;;4962255;28;20363;-81
2023/12/06 04:04:46;;;;;;;;;;;13.00;75.40;;;;;;4962079;28;19913;-81
2023/12/06 04:07:12;;;;;;;;;;;13.00;75.40;;;;;;4960435;28;20005;-81
2023/12/06 04:09:38;;;;;;;;;;;13.00;75.50;;;;;;4958934;28;19941;-81
2023/12/06 04:12:03;;;;;;;;;;;13.00;75.50;;;;;;4958937;28;19960;-81
2023/12/06 04:14:29;;;;;;;;;;;13.00;75.50;;;;;;4959084;28;19909;-80
2023/12/06 04:16:54;;;;;;;;;;;13.00;75.50;;;;;;4958965;28;20020;-80
2023/12/06 04:19:19;;;;;;;;;;;13.00;76.00;;;;;;4958910;28;19906;-80
2023/12/06 04:21:45;;;;;;;;;;;12.90;75.40;;;;;;4958697;28;19910;-81
2023/12/06 04:24:10;;;;;;;;;;;13.00;75.50;;;;;;4959155;28;20057;-81
2023/12/06 04:26:36;;;;;;;;;;;13.00;75.50;;;;;;4959214;28;19907;-79
2023/12/06 04:29:01;;;;;;;;;;;13.00;75.50;;;;;;4958143;28;19919;-81
2023/12/06 04:31:26;;;;;;;;;;;13.00;75.50;;;;;;4952762;28;20008;-78
2023/12/06 04:33:52;;;;;;;;;;;13.00;75.50;;;;;;4955486;28;19941;-81
2023/12/06 04:36:17;;;;;;;;;;;13.00;75.60;;;;;;4957937;28;20318;-81
2023/12/06 04:38:43;;;;;;;;;;;13.00;75.60;;;;;;4974359;28;19909;-80
2023/12/06 04:41:08;;;;;;;;;;;12.90;75.50;;;;;;4974565;28;19970;-80
2023/12/06 04:43:34;;;;;;;;;;;12.90;75.50;;;;;;4991813;28;19953;-81
2023/12/06 04:45:59;;;;;;;;;;;14.40;76.40;;;;;;4974075;28;19905;-81
2023/12/06 04:48:25;;;;;;;;;;;12.90;75.50;;;;;;4973982;28;19906;-79
2023/12/06 04:50:51;;;;;;;;;;;12.90;75.50;;;;;;4974025;28;19905;-81
2023/12/06 04:53:17;;;;;;;;;;;12.90;75.50;;;;;;4974334;28;20330;-79
2023/12/06 04:55:42;;;;;;;;;;;12.90;75.60;;;;;;4973172;28;19915;-77
2023/12/06 04:58:08;;;;;;;;;;;12.90;75.60;;;;;;4973511;28;19910;-81
2023/12/06 05:00:34;;;;;;;;;;;12.90;75.60;;;;;;4974097;28;19920;-80
2023/12/06 05:02:59;;;;;;;;;;;12.90;75.60;;;;;;4974339;28;19925;-79
2023/12/06 05:05:25;;;;;;;;;;;12.90;75.60;;;;;;4974551;28;19913;-80
2023/12/06 05:07:50;;;;;;;;;;;12.90;75.60;;;;;;4974272;28;20337;-81
2023/12/06 05:10:15;;;;;;;;;;;12.90;75.60;;;;;;4974924;28;19961;-81
2023/12/06 05:12:41;;;;;;;;;;;12.90;75.60;;;;;;4975120;28;19917;-80
2023/12/06 05:15:07;;;;;;;;;;;12.90;75.60;;;;;;4974771;28;19913;-80
2023/12/06 05:17:33;;;;;;;;;;;12.90;75.70;;;;;;4975236;28;19964;-79
2023/12/06 05:19:58;;;;;;;;;;;12.90;75.60;;;;;;4973746;28;19942;-81
2023/12/06 05:22:30;;;;;;;;;;;12.90;75.60;;;;;;4975250;28;20004;-81
2023/12/06 05:25:05;;;;;;;;;;;12.90;75.60;;;;;;4974960;28;20582;-81
2023/12/06 05:27:38;;;;;;;;;;;12.90;75.70;;;;;;4992336;28;20012;-82
2023/12/06 05:30:06;;;;;;;;;;;12.90;75.70;;;;;;4974540;28;19963;-81
2023/12/06 05:32:55;;;;;;;;;;;12.90;75.70;;;;;;4974397;28;19968;-79
2023/12/06 05:35:55;;;;;;;;;;;12.90;75.70;;;;;;4974454;28;20442;-80
2023/12/06 05:38:26;;;;;;;;;;;12.90;75.70;;;;;;4969071;28;19941;-81
2023/12/06 05:40:57;;;;;;;;;;;12.90;75.70;;;;;;4971376;28;20327;-81
2023/12/06 05:43:31;;;;;;;;;;;12.90;75.70;;;;;;4991665;28;19909;-80
2023/12/06 05:46:06;;;;;;;;;;;12.90;75.70;;;;;;4991654;28;19914;-81
2023/12/06 05:48:39;;;;;;;;;;;12.90;75.80;;;;;;4988538;28;19956;-81
2023/12/06 05:51:19;;;;;;;;;;;12.90;75.70;;;;;;4991672;28;19909;-81
2023/12/06 05:53:58;;;;;;;;;;;12.90;75.70;;;;;;4974287;28;19918;-80
2023/12/06 05:56:31;;;;;;;;;;;12.90;75.70;;;;;;4908152;29;20005;-81
2023/12/06 05:59:03;;;;;;;;;;;12.90;75.70;;;;;;4952069;28;20453;-80
2023/12/06 06:01:33;;;;;;;;;;;12.90;75.80;;;;;;4969913;28;20270;-81
2023/12/06 06:04:20;;;;;;;;;;;12.90;75.80;;;;;;4954582;28;19906;-81
2023/12/06 06:07:21;;;;;;;;;;;12.90;75.80;;;;;;4955496;28;19906;-81
2023/12/06 06:09:55;;;;;;;;;;;12.80;75.70;;;;;;4967303;28;20660;-80
2023/12/06 06:12:32;;;;;;;;;;;12.80;75.70;;;;;;4968066;28;20297;-81
2023/12/06 06:15:01;;;;;;;;;;;12.80;75.70;;;;;;4954472;28;19914;-81
2023/12/06 06:17:49;;;;;;;;;;;12.80;75.80;;;;;;4971411;28;19941;-81
2023/12/06 06:20:26;;;;;;;;;;;12.80;75.80;;;;;;4953900;28;19910;-79
2023/12/06 06:23:03;;;;;;;;;;;12.80;75.80;;;;;;4967996;28;20378;-79
2023/12/06 06:25:30;;;;;;;;;;;12.80;75.80;;;;;;4971206;28;19906;-81
2023/12/06 06:28:02;;;;;;;;;;;12.80;75.80;;;;;;4971462;28;19913;-81
2023/12/06 06:30:29;;;;;;;;;;;12.80;75.80;;;;;;4970614;28;19916;-81
2023/12/06 06:32:56;;;;;;;;;;;12.80;75.80;;;;;;4954150;28;19914;-81
2023/12/06 06:35:22;;;;;;;;;;;12.80;75.80;;;;;;4954121;28;20021;-81
2023/12/06 06:37:47;;;;;;;;;;;12.80;75.80;;;;;;4953992;28;19960;-81
2023/12/06 06:40:14;;;;;;;;;;;12.90;75.90;;;;;;4953720;28;19910;-81
2023/12/06 06:42:40;;;;;;;;;;;12.70;75.70;;;;;;4954162;28;19913;-81
2023/12/06 06:45:06;;;;;;;;;;;13.00;75.90;;;;;;4953795;28;19918;-81
2023/12/06 06:47:32;;;;;;;;;;;12.80;75.80;;;;;;4953836;28;19917;-81
2023/12/06 06:50:06;;;;;;;;;;;13.30;76.10;;;;;;4953681;28;19910;-80
2023/12/06 06:52:34;;;;;;;;;;;12.80;75.90;;;;;;4953659;28;19906;-81
2023/12/06 06:55:07;;;;;;;;;;;12.80;75.90;;;;;;4954091;28;19960;-80
2023/12/06 06:57:35;;;;;;;;;;;12.80;75.80;;;;;;4954137;28;19906;-80
2023/12/06 07:00:06;;;;;;;;;;;12.80;75.90;;;;;;4953507;28;19910;-81
2023/12/06 07:02:32;;;;;;;;;;;12.80;75.90;;;;;;4954027;28;19937;-80
2023/12/06 07:05:00;;;;;;;;;;;12.80;75.90;;;;;;4954082;28;19914;-80
2023/12/06 07:07:26;;;;;;;;;;;12.80;75.90;;;;;;4953786;28;20594;-81
2023/12/06 07:09:51;;;;;;;;;;;13.00;76.00;;;;;;4953452;28;19909;-80
2023/12/06 07:12:18;;;;;;;;;;;12.80;75.90;;;;;;4953557;28;19993;-81
2023/12/06 07:14:43;;;;;;;;;;;12.80;75.90;;;;;;4953293;28;19981;-79
2023/12/06 07:17:09;;;;;;;;;;;12.90;76.00;;;;;;4953398;28;20433;-81
2023/12/06 07:19:34;;;;;;;;;;;12.80;76.00;;;;;;4953227;28;20299;-80
2023/12/06 07:22:00;;;;;;;;;;;12.80;75.90;;;;;;4970590;28;19953;-81
2023/12/06 07:24:25;;;;;;;;;;;12.80;76.00;;;;;;4953427;28;20060;-82
2023/12/06 07:26:51;;;;;;;;;;;12.80;76.00;;;;;;4970632;28;19918;-81
2023/12/06 07:29:16;;;;;;;;;;;12.80;76.00;;;;;;4952892;28;20085;-81
2023/12/06 07:31:42;;;;;;;;;;;12.50;75.80;;;;;;4953182;28;19913;-80
2023/12/06 07:34:08;;;;;;;;;;;12.80;76.00;;;;;;4953140;28;19910;-81
2023/12/06 07:36:33;;;;;;;;;;;12.80;76.00;;;;;;4953484;28;19916;-79
2023/12/06 07:38:59;;;;;;;;;;;12.80;76.00;;;;;;4953195;28;19957;-81
2023/12/06 07:41:24;;;;;;;;;;;12.80;76.00;;;;;;4953321;28;20318;-81
2023/12/06 07:43:49;;;;;;;;;;;12.80;76.00;;;;;;4955969;28;19914;-81
2023/12/06 07:46:15;;;;;;;;;;;12.80;76.00;;;;;;4956999;28;19917;-79
2023/12/06 07:48:41;;;;;;;;;;;12.80;76.00;;;;;;4956739;28;19907;-81
2023/12/06 07:51:06;;;;;;;;;;;12.80;76.00;;;;;;4963382;28;19914;-82
2023/12/06 07:53:31;;;;;;;;;;;12.80;76.00;;;;;;4972759;28;19917;-80
2023/12/06 07:55:58;;;;;;;;;;;12.70;76.00;;;;;;4972823;28;20371;-81
2023/12/06 07:58:24;;;;;;;;;;;12.80;76.10;;;;;;4972853;28;19912;-82
2023/12/06 08:00:49;;;;;;;;;;;12.70;76.00;;;;;;4972762;28;19906;-81
2023/12/06 08:03:15;;;;;;;;;;;12.80;76.10;;;;;;4972975;28;19906;-81
2023/12/06 08:05:41;;;;;;;;;;;12.80;76.10;;;;;;4972866;28;19988;-81
2023/12/06 08:08:06;;;;;;;;;;;12.80;76.10;;;;;;4973770;28;20355;-81
2023/12/06 08:10:33;;;;;;;;;;;12.70;76.10;;;;;;4972190;28;19910;-80
2023/12/06 08:12:59;;;;;;;;;;;12.80;76.10;;;;;;4972421;28;19913;-81
2023/12/06 08:15:25;;;;;;;;;;;12.70;76.10;;;;;;4972486;28;19918;-81
2023/12/06 08:17:50;;;;;;;;;;;12.70;76.10;;;;;;4972418;28;19906;-81
2023/12/06 08:20:15;;;;;;;;;;;12.70;76.10;;;;;;4972818;28;19916;-80
2023/12/06 08:22:41;;;;;;;;;;;12.70;76.10;;;;;;4971505;28;19914;-79
2023/12/06 08:25:07;;;;;;;;;;;12.70;76.10;;;;;;4972662;28;19910;-81
2023/12/06 08:27:34;;;;;;;;;;;12.70;76.10;;;;;;4972493;28;19986;-82
2023/12/06 08:30:00;;;;;;;;;;;12.70;76.20;;;;;;4972397;28;19910;-81
2023/12/06 08:32:26;;;;;;;;;;;12.70;76.20;;;;;;4972509;28;19922;-79
2023/12/06 08:34:51;;;;;;;;;;;12.70;76.20;;;;;;4972665;28;19965;-82
2023/12/06 08:37:17;;;;;;;;;;;12.70;76.20;;;;;;4972633;28;20367;-79
2023/12/06 08:39:45;;;;;;;;;;;12.80;76.20;;;;;;4972779;28;19957;-81
2023/12/06 08:42:17;;;;;;;;;;;12.70;75.90;;;;;;4972550;28;19919;-81
2023/12/06 08:44:42;;;;;;;;;;;12.60;75.80;;;;;;4972347;28;20009;-80
2023/12/06 08:47:08;;;;;;;;;;;12.80;76.00;;;;;;4972436;28;19993;-81
2023/12/06 08:49:39;;;;;;;;;;;12.70;75.90;;;;;;4974029;28;20370;-80
2023/12/06 08:52:10;;;;;;;;;;;12.70;75.90;;;;;;4972193;28;19964;-82
2023/12/06 08:54:35;;;;;;;;;;;12.70;75.90;;;;;;4971722;28;19938;-80
2023/12/06 08:57:02;;;;;;;;;;;12.70;75.90;;;;;;4971698;28;19910;-80
2023/12/06 08:59:29;;;;;;;;;;;12.70;75.80;;;;;;4971204;28;19961;-80
2023/12/06 09:01:54;;;;;;;;;;;12.70;75.90;;;;;;4971493;28;19909;-81
2023/12/06 09:04:20;;;;;;;;;;;12.70;75.90;;;;;;4971434;28;19910;-81
2023/12/06 09:06:45;;;;;;;;;;;12.80;76.00;;;;;;4974849;28;19931;-81
2023/12/06 09:09:11;;;;;;;;;;;12.70;75.90;;;;;;4974572;28;19907;-80
2023/12/06 09:11:37;;;;;;;;;;;12.70;76.00;;;;;;4974519;28;19906;-80
2023/12/06 09:14:02;;;;;;;;;;;12.70;76.00;;;;;;4974486;28;19914;-80
2023/12/06 09:16:27;;;;;;;;;;;12.70;75.00;;;;;;4974488;28;19989;-80
2023/12/06 09:18:53;;;;;;;;;;;12.70;75.90;;;;;;4974353;28;20421;-80
2023/12/06 09:21:19;;;;;;;;;;;12.70;76.00;;;;;;4974673;28;19906;-80
2023/12/06 09:23:44;;;;;;;;;;;12.70;76.00;;;;;;4974519;28;20400;-80
2023/12/06 09:26:09;;;;;;;;;;;12.70;75.90;;;;;;4974386;28;19906;-81
2023/12/06 09:28:35;;;;;;;;;;;12.70;76.00;;;;;;4975520;28;19910;-80
2023/12/06 09:31:01;;;;;;;;;;;12.70;76.00;;;;;;4974266;28;19929;-81
2023/12/06 09:33:26;;;;;;;;;;;12.70;76.00;;;;;;4974184;28;19913;-80
2023/12/06 09:35:51;;;;;;;;;;;12.70;76.00;;;;;;4975528;28;19906;-81
2023/12/06 09:38:17;;;;;;;;;;;12.70;76.00;;;;;;4974118;28;19906;-80
2023/12/06 09:40:42;;;;;;;;;;;12.70;76.10;;;;;;4974165;28;19906;-80
2023/12/06 09:43:08;;;;;;;;;;;12.70;76.10;;;;;;4974050;28;19914;-81
2023/12/06 09:45:34;;;;;;;;;;;12.70;76.10;;;;;;4973811;28;19914;-81
2023/12/06 09:48:00;;;;;;;;;;;12.70;76.00;;;;;;4975301;28;19913;-81
2023/12/06 09:50:25;;;;;;;;;;;12.70;76.10;;;;;;4973996;28;20491;-81
2023/12/06 09:52:52;;;;;;;;;;;12.70;76.10;;;;;;4973982;28;19949;-80
2023/12/06 09:55:24;;;;;;;;;;;12.70;76.10;;;;;;4973985;28;19913;-80
2023/12/06 09:57:53;;;;;;;;;;;12.70;76.10;;;;;;4973823;28;19910;-81
2023/12/06 10:00:19;;;;;;;;;;;12.70;76.10;;;;;;4973691;28;19956;-81
2023/12/06 10:02:52;;;;;;;;;;;12.70;76.10;;;;;;4973846;28;19906;-80
2023/12/06 10:05:17;;;;;;;;;;;12.70;76.10;;;;;;4973166;28;20386;-82
2023/12/06 10:07:43;;;;;;;;;;;12.70;76.10;;;;;;4973917;28;19906;-82
2023/12/06 10:10:15;;;;;;;;;;;12.70;76.10;;;;;;4973340;28;20452;-78
2023/12/06 10:12:45;;;;;;;;;;;12.70;76.10;;;;;;4974604;28;19906;-81
2023/12/06 10:15:10;;;;;;;;;;;12.70;76.10;;;;;;4973582;28;19957;-81
2023/12/06 10:17:36;;;;;;;;;;;12.60;76.10;;;;;;4973504;28;19906;-81
2023/12/06 10:20:04;;;;;;;;;;;12.70;76.20;;;;;;4965851;28;20707;-80
2023/12/06 10:22:29;;;;;;;;;;;12.70;76.10;;;;;;4938020;29;19988;-80
2023/12/06 10:24:56;;;;;;;;;;;12.70;76.10;;;;;;4955272;29;19958;-79
2023/12/06 10:27:23;;;;;;;;;;;12.70;76.10;;;;;;4938331;29;19917;-81
2023/12/06 10:29:52;;;;;;;;;;;12.70;76.20;;;;;;4955031;29;20282;-80
2023/12/06 10:32:17;;;;;;;;;;;12.70;76.10;;;;;;4955126;28;20018;-80
2023/12/06 10:34:43;;;;;;;;;;;12.70;76.20;;;;;;4937918;29;19997;-80
2023/12/06 10:37:09;;;;;;;;;;;12.70;76.10;;;;;;4938018;29;19906;-81
2023/12/06 10:39:36;;;;;;;;;;;12.70;76.20;;;;;;4937489;29;19911;-80
2023/12/06 10:42:04;;;;;;;;;;;12.70;76.20;;;;;;4937678;29;19913;-81
2023/12/06 10:44:30;;;;;;;;;;;12.70;76.20;;;;;;4937637;29;19914;-81
2023/12/06 10:46:56;;;;;;;;;;;12.70;76.10;;;;;;4937806;29;20302;-81
2023/12/06 10:49:22;;;;;;;;;;;12.70;76.10;;;;;;4937587;29;19915;-81
2023/12/06 10:51:48;;;;;;;;;;;12.70;76.20;;;;;;4937526;29;19907;-82
2023/12/06 10:54:14;;;;;;;;;;;12.80;76.20;;;;;;4937663;29;20272;-81
2023/12/06 10:56:40;;;;;;;;;;;12.80;76.20;;;;;;4937772;29;19957;-82
2023/12/06 10:59:06;;;;;;;;;;;12.70;76.10;;;;;;4937660;29;19956;-81
2023/12/06 11:01:35;;;;;;;;;;;12.80;76.20;;;;;;4937627;29;19907;-81
2023/12/06 11:04:01;;;;;;;;;;;12.70;76.10;;;;;;4953596;29;19933;-81
2023/12/06 11:06:33;;;;;;;;;;;12.80;76.00;;;;;;4937764;29;19907;-80
2023/12/06 11:09:01;;;;;;;;;;;12.80;76.10;;;;;;4937380;29;19906;-80
2023/12/06 11:11:28;;;;;;;;;;;12.70;76.00;;;;;;4937559;29;19906;-79
2023/12/06 11:14:13;;;;;;;;;;;12.70;76.00;;;;;;4937537;29;20406;-80
2023/12/06 11:16:49;;;;;;;;;;;12.70;75.90;;;;;;4956167;28;19913;-79
2023/12/06 11:19:15;;;;;;;;;;;12.80;76.00;;;;;;4941424;29;19917;-79
2023/12/06 11:21:40;;;;;;;;;;;12.80;76.00;;;;;;4941377;29;19910;-80
2023/12/06 11:24:10;;;;;;;;;;;12.80;76.00;;;;;;4941281;29;19961;-80
2023/12/06 11:26:35;;;;;;;;;;;12.70;76.00;;;;;;4941311;29;20264;-79
2023/12/06 11:29:02;;;;;;;;;;;12.70;76.00;;;;;;4941208;29;19906;-79
2023/12/06 11:31:37;;;;;;;;;;;12.80;76.00;;;;;;4941477;29;19993;-80
2023/12/06 11:34:08;;;;;;;;;;;12.80;76.00;;;;;;4941086;29;20009;-80
2023/12/06 11:36:35;;;;;;;;;;;12.70;76.00;;;;;;4941183;29;19906;-80
2023/12/06 11:39:16;;;;;;;;;;;12.70;76.00;;;;;;4941036;29;19907;-79
2023/12/06 11:41:48;;;;;;;;;;;12.80;76.00;;;;;;4940837;29;19910;-79
2023/12/06 11:44:16;;;;;;;;;;;12.80;76.10;;;;;;4958263;29;20252;-79
2023/12/06 11:46:52;;;;;;;;;;;12.80;76.00;;;;;;4940916;29;20330;-81
2023/12/06 11:49:20;;;;;;;;;;;12.70;76.00;;;;;;4940664;29;19906;-79
2023/12/06 11:51:51;;;;;;;;;;;12.80;76.00;;;;;;4956683;28;19910;-79
2023/12/06 11:54:16;;;;;;;;;;;12.80;76.10;;;;;;4940908;29;20287;-80
2023/12/06 11:56:41;;;;;;;;;;;12.80;76.00;;;;;;4940700;29;19917;-80
2023/12/06 11:59:07;;;;;;;;;;;12.80;76.00;;;;;;4940358;29;20291;-80
2023/12/06 12:01:33;;;;;;;;;;;12.80;76.00;;;;;;4940514;29;19910;-80
2023/12/06 12:03:58;;;;;;;;;;;12.80;75.90;;;;;;4940686;29;19910;-81
2023/12/06 12:06:27;;;;;;;;;;;12.80;75.90;;;;;;4958062;29;19919;-80
2023/12/06 12:08:52;;;;;;;;;;;12.80;75.90;;;;;;4940295;29;19929;-81
2023/12/06 12:11:18;;;;;;;;;;;12.80;75.90;;;;;;4957444;28;20375;-80
2023/12/06 12:13:43;;;;;;;;;;;12.80;75.90;;;;;;4957373;29;19914;-78
2023/12/06 12:16:10;;;;;;;;;;;12.80;76.00;;;;;;4957533;29;19954;-81
2023/12/06 12:18:35;;;;;;;;;;;12.80;75.90;;;;;;4940152;29;20435;-79
2023/12/06 12:21:16;;;;;;;;;;;12.80;76.00;;;;;;4940245;29;19945;-80
2023/12/06 12:23:42;;;;;;;;;;;12.80;76.00;;;;;;4940587;29;19906;-79
2023/12/06 12:26:12;;;;;;;;;;;12.80;76.00;;;;;;4956204;29;19957;-79
2023/12/06 12:28:39;;;;;;;;;;;12.80;76.00;;;;;;4939516;29;19946;-80
2023/12/06 12:31:06;;;;;;;;;;;12.80;76.00;;;;;;4940168;29;20383;-79
2023/12/06 12:33:32;;;;;;;;;;;12.80;76.00;;;;;;4956114;29;19913;-81
2023/12/06 12:35:57;;;;;;;;;;;12.80;76.00;;;;;;4940254;29;19907;-80
2023/12/06 12:38:23;;;;;;;;;;;12.80;76.00;;;;;;4957099;29;19906;-79
2023/12/06 12:40:49;;;;;;;;;;;12.80;76.10;;;;;;4939818;29;19913;-80
2023/12/06 12:43:15;;;;;;;;;;;12.80;76.10;;;;;;4957082;29;19911;-80
2023/12/06 12:45:40;;;;;;;;;;;12.80;76.10;;;;;;4939955;29;19914;-80
2023/12/06 12:48:06;;;;;;;;;;;12.80;76.10;;;;;;4939851;29;20322;-77
2023/12/06 12:50:32;;;;;;;;;;;12.80;76.10;;;;;;4939574;29;19906;-80
2023/12/06 12:52:59;;;;;;;;;;;12.80;76.10;;;;;;4941023;29;19929;-79
2023/12/06 12:55:25;;;;;;;;;;;12.80;76.20;;;;;;4941412;29;19922;-80
2023/12/06 12:57:50;;;;;;;;;;;12.80;76.10;;;;;;4940986;29;19906;-78
2023/12/06 13:00:20;;;;;;;;;;;12.80;76.10;;;;;;4940988;28;19957;-80
2023/12/06 13:02:54;;;;;;;;;;;12.80;76.10;;;;;;4940768;29;19985;-78
2023/12/06 13:05:20;;;;;;;;;;;12.80;76.10;;;;;;4939715;29;19913;-79
2023/12/06 13:07:49;;;;;;;;;;;12.80;76.10;;;;;;4939773;29;19930;-79
2023/12/06 13:10:16;;;;;;;;;;;12.80;76.10;;;;;;4938961;28;19910;-79
2023/12/06 13:12:41;;;;;;;;;;;12.80;76.20;;;;;;4939575;29;19969;-80
2023/12/06 13:15:10;;;;;;;;;;;12.80;76.20;;;;;;4956608;29;20359;-80
2023/12/06 13:17:36;;;;;;;;;;;12.80;76.20;;;;;;4955547;29;19913;-79
2023/12/06 13:20:03;;;;;;;;;;;12.80;76.10;;;;;;4938979;28;19910;-78
2023/12/06 13:22:28;;;;;;;;;;;12.70;76.10;;;;;;4939213;29;19914;-81
2023/12/06 13:24:54;;;;;;;;;;;12.80;76.20;;;;;;4939099;29;20291;-79
2023/12/06 13:27:19;;;;;;;;;;;12.80;76.20;;;;;;4939126;29;20382;-80
2023/12/06 13:29:44;;;;;;;;;;;12.80;76.20;;;;;;4938950;29;19911;-81
2023/12/06 13:32:13;;;;;;;;;;;12.80;76.20;;;;;;4938882;29;20360;-81
2023/12/06 13:34:42;;;;;;;;;;;12.80;76.20;;;;;;4938874;29;19910;-80
2023/12/06 13:37:08;;;;;;;;;;;12.80;76.20;;;;;;4938701;29;19953;-80
2023/12/06 13:39:34;;;;;;;;;;;12.70;76.20;;;;;;4955594;28;19906;-81
2023/12/06 13:42:00;;;;;;;;;;;12.80;76.20;;;;;;4938372;29;19914;-79
2023/12/06 13:44:25;;;;;;;;;;;12.80;76.20;;;;;;4938837;29;19915;-80
2023/12/06 13:46:50;;;;;;;;;;;12.80;76.30;;;;;;4938761;29;19906;-80
2023/12/06 13:49:16;;;;;;;;;;;12.80;76.30;;;;;;4938577;29;20291;-80
2023/12/06 13:51:41;;;;;;;;;;;12.80;76.30;;;;;;4938548;29;20019;-81
2023/12/06 13:54:07;;;;;;;;;;;12.80;76.30;;;;;;4938558;29;19978;-79
2023/12/06 13:56:32;;;;;;;;;;;12.80;76.30;;;;;;4938612;29;19907;-80
2023/12/06 13:58:58;;;;;;;;;;;12.80;76.30;;;;;;4937804;29;19907;-79
2023/12/06 14:01:23;;;;;;;;;;;12.80;76.30;;;;;;4936629;29;19906;-80
2023/12/06 14:03:55;;;;;;;;;;;12.80;76.30;;;;;;4953766;29;20303;-80
2023/12/06 14:06:21;;;;;;;;;;;12.80;76.30;;;;;;4936945;29;19928;-81
2023/12/06 14:08:46;;;;;;;;;;;12.80;76.40;;;;;;4936141;29;19910;-80
2023/12/06 14:11:12;;;;;;;;;;;12.80;76.40;;;;;;4936540;29;20433;-79
2023/12/06 14:13:37;;;;;;;;;;;12.80;76.30;;;;;;4936165;29;19919;-81
2023/12/06 14:16:03;;;;;;;;;;;12.80;76.40;;;;;;4936435;29;19913;-81